RJSC/GAJ METAR and TAF weather

Enter ICAO airport designator
Station Type Date Time Source
RJSC METAR 2022/12/05 10:00 UTC NOAA

RJSC 051000Z 02006KT 9999 FEW050 SCT150 BKN160 02/M01 Q1021


Station Type Date Time Source
RJSC Decoded METAR 2022/12/05 10:00 UTC NOAA

Yamagata Airport, Japan (RJSC) 38-25N 140-22E 108M
Dec 05, 2022 - 05:00 AM EST / 2022.12.05 1000 UTC
Wind: from the NNE (020 degrees) at 7 MPH (6 KT):0
Visibility: greater than 7 mile(s):0
Sky conditions: mostly cloudy
Temperature: 35 F (2 C)
Windchill: 28 F (-2 C):1
Dew Point: 30 F (-1 C)
Relative Humidity: 80%
Pressure (altimeter): 30.15 in. Hg (1021 hPa)
ob: RJSC 051000Z 02006KT 9999 FEW050 SCT150 BKN160 02/M01 Q1021
cycle: 10

Station Type Date Time Source
RJSC TAF UTC NOAA

Error!

Example: see airport list